Terminal Aerodrome Forecast
Issued by NWS Sioux Falls, SD

Home | Current Version | Previous Version | Text Only | Print | Product List | Glossary On
Versions: 1 2 3 4 5 6 7 8 9 10 11 12 13
000
FTUS43 KFSD 282321
TAFHON
TAF
KHON 282321Z 0100/0124 21006KT P6SM BKN060
     FM010200 27004KT P6SM SCT060
     FM010800 VRB03KT P6SM BKN140
     FM011700 28012KT P6SM BKN045=

USA.gov is the U.S. government's official web portal to all federal, state and local government web resources and services.